sensor_id;sensor_type;location;lat;lon;timestamp;P1;durP1;ratioP1;P2;durP2;ratioP2
64875;SDS011;51369;49.862;9.908;2022-12-01T00:01:08;47.63;;;21.85;;
64875;SDS011;51369;49.862;9.908;2022-12-01T00:03:34;47.83;;;21.42;;
64875;SDS011;51369;49.862;9.908;2022-12-01T00:06:05;48.78;;;22.83;;
64875;SDS011;51369;49.862;9.908;2022-12-01T00:08:33;46.42;;;21.92;;
64875;SDS011;51369;49.862;9.908;2022-12-01T00:11:06;44.88;;;21.77;;
64875;SDS011;51369;49.862;9.908;2022-12-01T00:13:36;45.63;;;22.60;;
64875;SDS011;51369;49.862;9.908;2022-12-01T00:16:15;44.28;;;21.58;;
64875;SDS011;51369;49.862;9.908;2022-12-01T00:18:41;47.30;;;21.40;;
64875;SDS011;51369;49.862;9.908;2022-12-01T00:21:17;42.28;;;20.98;;
64875;SDS011;51369;49.862;9.908;2022-12-01T00:23:44;44.42;;;21.52;;
64875;SDS011;51369;49.862;9.908;2022-12-01T00:26:11;41.47;;;20.48;;
64875;SDS011;51369;49.862;9.908;2022-12-01T00:28:37;43.28;;;20.17;;
64875;SDS011;51369;49.862;9.908;2022-12-01T00:31:06;45.63;;;20.83;;
64875;SDS011;51369;49.862;9.908;2022-12-01T00:33:33;41.70;;;19.58;;
64875;SDS011;51369;49.862;9.908;2022-12-01T00:35:59;42.15;;;20.65;;
64875;SDS011;51369;49.862;9.908;2022-12-01T00:38:25;41.80;;;20.58;;
64875;SDS011;51369;49.862;9.908;2022-12-01T00:40:50;43.33;;;20.40;;
64875;SDS011;51369;49.862;9.908;2022-12-01T00:43:16;41.60;;;20.13;;
64875;SDS011;51369;49.862;9.908;2022-12-01T00:45:42;40.00;;;19.52;;
64875;SDS011;51369;49.862;9.908;2022-12-01T00:48:07;42.03;;;19.70;;
64875;SDS011;51369;49.862;9.908;2022-12-01T00:50:33;44.50;;;21.33;;
64875;SDS011;51369;49.862;9.908;2022-12-01T00:52:58;42.25;;;19.13;;
64875;SDS011;51369;49.862;9.908;2022-12-01T00:55:24;41.00;;;20.30;;
64875;SDS011;51369;49.862;9.908;2022-12-01T00:57:49;41.42;;;20.55;;
64875;SDS011;51369;49.862;9.908;2022-12-01T01:00:15;41.03;;;20.33;;
64875;SDS011;51369;49.862;9.908;2022-12-01T01:02:41;38.38;;;19.27;;
64875;SDS011;51369;49.862;9.908;2022-12-01T01:05:07;42.40;;;20.20;;
64875;SDS011;51369;49.862;9.908;2022-12-01T01:07:33;36.72;;;19.58;;
64875;SDS011;51369;49.862;9.908;2022-12-01T01:09:58;42.22;;;20.52;;
64875;SDS011;51369;49.862;9.908;2022-12-01T01:12:23;34.25;;;17.55;;
64875;SDS011;51369;49.862;9.908;2022-12-01T01:14:49;41.67;;;21.17;;
64875;SDS011;51369;49.862;9.908;2022-12-01T01:17:14;39.97;;;18.00;;
64875;SDS011;51369;49.862;9.908;2022-12-01T01:19:40;42.10;;;19.38;;
64875;SDS011;51369;49.862;9.908;2022-12-01T01:22:05;35.80;;;19.00;;
64875;SDS011;51369;49.862;9.908;2022-12-01T01:24:31;38.85;;;19.08;;
64875;SDS011;51369;49.862;9.908;2022-12-01T01:26:56;38.72;;;18.75;;
64875;SDS011;51369;49.862;9.908;2022-12-01T01:29:21;37.25;;;18.60;;
64875;SDS011;51369;49.862;9.908;2022-12-01T01:31:47;34.65;;;17.95;;
64875;SDS011;51369;49.862;9.908;2022-12-01T01:34:12;38.53;;;19.60;;
64875;SDS011;51369;49.862;9.908;2022-12-01T01:36:38;35.67;;;17.88;;
64875;SDS011;51369;49.862;9.908;2022-12-01T01:39:03;36.95;;;19.20;;
64875;SDS011;51369;49.862;9.908;2022-12-01T01:41:29;42.97;;;19.23;;
64875;SDS011;51369;49.862;9.908;2022-12-01T01:46:26;34.83;;;17.70;;
64875;SDS011;51369;49.862;9.908;2022-12-01T01:51:35;34.05;;;17.60;;
64875;SDS011;51369;49.862;9.908;2022-12-01T01:54:07;40.00;;;18.80;;
64875;SDS011;51369;49.862;9.908;2022-12-01T01:56:39;40.80;;;18.67;;
64875;SDS011;51369;49.862;9.908;2022-12-01T01:59:07;36.65;;;18.38;;
64875;SDS011;51369;49.862;9.908;2022-12-01T02:01:34;37.58;;;18.70;;
64875;SDS011;51369;49.862;9.908;2022-12-01T02:04:00;38.42;;;19.17;;
64875;SDS011;51369;49.862;9.908;2022-12-01T02:06:26;35.35;;;18.02;;
64875;SDS011;51369;49.862;9.908;2022-12-01T02:08:52;40.75;;;18.75;;
64875;SDS011;51369;49.862;9.908;2022-12-01T02:19:53;38.78;;;17.52;;
64875;SDS011;51369;49.862;9.908;2022-12-01T02:22:44;41.78;;;18.50;;
64875;SDS011;51369;49.862;9.908;2022-12-01T02:25:40;40.80;;;18.17;;
64875;SDS011;51369;49.862;9.908;2022-12-01T02:31:26;36.13;;;17.63;;
64875;SDS011;51369;49.862;9.908;2022-12-01T02:40:24;33.38;;;16.02;;
64875;SDS011;51369;49.862;9.908;2022-12-01T02:47:58;31.63;;;16.35;;
64875;SDS011;51369;49.862;9.908;2022-12-01T02:50:26;33.40;;;16.58;;
64875;SDS011;51369;49.862;9.908;2022-12-01T02:52:55;28.40;;;15.50;;
64875;SDS011;51369;49.862;9.908;2022-12-01T02:55:21;30.30;;;15.77;;
64875;SDS011;51369;49.862;9.908;2022-12-01T02:57:46;43.58;;;16.30;;
64875;SDS011;51369;49.862;9.908;2022-12-01T03:00:12;29.38;;;15.25;;
64875;SDS011;51369;49.862;9.908;2022-12-01T03:10:57;32.53;;;16.42;;
64875;SDS011;51369;49.862;9.908;2022-12-01T03:15:59;32.85;;;16.38;;
64875;SDS011;51369;49.862;9.908;2022-12-01T03:23:27;27.15;;;14.98;;
64875;SDS011;51369;49.862;9.908;2022-12-01T03:25:55;31.08;;;16.67;;
64875;SDS011;51369;49.862;9.908;2022-12-01T03:28:27;33.90;;;16.55;;
64875;SDS011;51369;49.862;9.908;2022-12-01T03:30:58;31.60;;;15.63;;
64875;SDS011;51369;49.862;9.908;2022-12-01T03:33:34;30.95;;;16.50;;
64875;SDS011;51369;49.862;9.908;2022-12-01T03:36:07;29.92;;;15.38;;
64875;SDS011;51369;49.862;9.908;2022-12-01T03:38:39;30.23;;;16.17;;
64875;SDS011;51369;49.862;9.908;2022-12-01T03:41:12;29.10;;;15.05;;
64875;SDS011;51369;49.862;9.908;2022-12-01T03:43:43;30.58;;;16.40;;
64875;SDS011;51369;49.862;9.908;2022-12-01T03:46:23;29.38;;;14.55;;
64875;SDS011;51369;49.862;9.908;2022-12-01T03:49:05;31.85;;;15.90;;
64875;SDS011;51369;49.862;9.908;2022-12-01T03:57:24;31.42;;;15.13;;
64875;SDS011;51369;49.862;9.908;2022-12-01T03:59:54;31.95;;;16.25;;
64875;SDS011;51369;49.862;9.908;2022-12-01T04:02:20;29.63;;;14.73;;
64875;SDS011;51369;49.862;9.908;2022-12-01T04:04:49;27.33;;;14.90;;
64875;SDS011;51369;49.862;9.908;2022-12-01T04:07:15;29.70;;;14.82;;
64875;SDS011;51369;49.862;9.908;2022-12-01T04:09:40;28.83;;;15.32;;
64875;SDS011;51369;49.862;9.908;2022-12-01T04:12:06;30.83;;;16.15;;
64875;SDS011;51369;49.862;9.908;2022-12-01T04:14:52;30.75;;;14.82;;
64875;SDS011;51369;49.862;9.908;2022-12-01T04:17:17;31.60;;;15.75;;
64875;SDS011;51369;49.862;9.908;2022-12-01T04:19:43;29.75;;;15.52;;
64875;SDS011;51369;49.862;9.908;2022-12-01T04:22:08;32.53;;;15.95;;
64875;SDS011;51369;49.862;9.908;2022-12-01T04:24:34;28.88;;;15.52;;
64875;SDS011;51369;49.862;9.908;2022-12-01T04:26:59;32.17;;;15.95;;
64875;SDS011;51369;49.862;9.908;2022-12-01T04:29:25;31.88;;;16.25;;
64875;SDS011;51369;49.862;9.908;2022-12-01T04:31:50;32.22;;;15.52;;
64875;SDS011;51369;49.862;9.908;2022-12-01T04:34:15;31.30;;;16.27;;
64875;SDS011;51369;49.862;9.908;2022-12-01T04:36:41;32.38;;;15.43;;
64875;SDS011;51369;49.862;9.908;2022-12-01T04:39:06;35.25;;;17.33;;
64875;SDS011;51369;49.862;9.908;2022-12-01T04:41:31;39.03;;;16.83;;
64875;SDS011;51369;49.862;9.908;2022-12-01T04:43:57;35.35;;;16.52;;
64875;SDS011;51369;49.862;9.908;2022-12-01T04:46:23;29.73;;;15.27;;
64875;SDS011;51369;49.862;9.908;2022-12-01T04:48:49;33.67;;;16.50;;
64875;SDS011;51369;49.862;9.908;2022-12-01T04:51:14;30.63;;;15.23;;
64875;SDS011;51369;49.862;9.908;2022-12-01T04:53:40;33.75;;;15.05;;
64875;SDS011;51369;49.862;9.908;2022-12-01T04:56:05;31.02;;;14.85;;
64875;SDS011;51369;49.862;9.908;2022-12-01T04:58:31;33.25;;;16.33;;
64875;SDS011;51369;49.862;9.908;2022-12-01T05:01:01;31.52;;;16.27;;
64875;SDS011;51369;49.862;9.908;2022-12-01T05:03:31;31.30;;;16.13;;
64875;SDS011;51369;49.862;9.908;2022-12-01T05:06:01;33.13;;;17.13;;
64875;SDS011;51369;49.862;9.908;2022-12-01T05:08:32;28.40;;;14.82;;
64875;SDS011;51369;49.862;9.908;2022-12-01T05:10:58;27.50;;;14.23;;
64875;SDS011;51369;49.862;9.908;2022-12-01T05:13:23;34.33;;;16.40;;
64875;SDS011;51369;49.862;9.908;2022-12-01T05:15:49;31.50;;;15.93;;
64875;SDS011;51369;49.862;9.908;2022-12-01T05:18:14;28.77;;;15.35;;
64875;SDS011;51369;49.862;9.908;2022-12-01T05:20:39;34.30;;;16.13;;
64875;SDS011;51369;49.862;9.908;2022-12-01T05:23:27;33.03;;;15.15;;
64875;SDS011;51369;49.862;9.908;2022-12-01T05:25:54;28.45;;;14.30;;
64875;SDS011;51369;49.862;9.908;2022-12-01T05:28:20;31.02;;;14.77;;
64875;SDS011;51369;49.862;9.908;2022-12-01T05:30:47;33.60;;;16.52;;
64875;SDS011;51369;49.862;9.908;2022-12-01T05:33:13;32.20;;;15.82;;
64875;SDS011;51369;49.862;9.908;2022-12-01T05:35:39;31.00;;;15.30;;
64875;SDS011;51369;49.862;9.908;2022-12-01T05:38:05;34.42;;;16.88;;
64875;SDS011;51369;49.862;9.908;2022-12-01T05:40:30;31.90;;;16.42;;
64875;SDS011;51369;49.862;9.908;2022-12-01T05:42:56;33.25;;;15.10;;
64875;SDS011;51369;49.862;9.908;2022-12-01T05:45:22;28.33;;;14.35;;
64875;SDS011;51369;49.862;9.908;2022-12-01T05:47:48;35.38;;;16.67;;
64875;SDS011;51369;49.862;9.908;2022-12-01T05:50:13;30.23;;;15.80;;
64875;SDS011;51369;49.862;9.908;2022-12-01T05:52:39;34.90;;;16.25;;
64875;SDS011;51369;49.862;9.908;2022-12-01T05:55:04;40.30;;;16.63;;
64875;SDS011;51369;49.862;9.908;2022-12-01T05:57:31;32.30;;;16.67;;
64875;SDS011;51369;49.862;9.908;2022-12-01T05:59:57;32.33;;;15.27;;
64875;SDS011;51369;49.862;9.908;2022-12-01T06:02:23;27.77;;;13.63;;
64875;SDS011;51369;49.862;9.908;2022-12-01T06:04:50;33.22;;;15.32;;
64875;SDS011;51369;49.862;9.908;2022-12-01T06:07:16;31.25;;;15.35;;
64875;SDS011;51369;49.862;9.908;2022-12-01T06:09:42;33.78;;;15.95;;
64875;SDS011;51369;49.862;9.908;2022-12-01T06:12:09;32.72;;;16.38;;
64875;SDS011;51369;49.862;9.908;2022-12-01T06:14:34;29.80;;;15.38;;
64875;SDS011;51369;49.862;9.908;2022-12-01T06:16:59;37.13;;;17.08;;
64875;SDS011;51369;49.862;9.908;2022-12-01T06:19:25;30.17;;;15.60;;
64875;SDS011;51369;49.862;9.908;2022-12-01T06:21:50;33.10;;;17.38;;
64875;SDS011;51369;49.862;9.908;2022-12-01T06:24:15;31.48;;;15.65;;
64875;SDS011;51369;49.862;9.908;2022-12-01T06:26:41;31.80;;;16.15;;
64875;SDS011;51369;49.862;9.908;2022-12-01T06:29:08;35.72;;;15.80;;
64875;SDS011;51369;49.862;9.908;2022-12-01T06:31:34;31.23;;;14.32;;
64875;SDS011;51369;49.862;9.908;2022-12-01T06:34:00;34.15;;;15.90;;
64875;SDS011;51369;49.862;9.908;2022-12-01T06:36:25;32.15;;;14.70;;
64875;SDS011;51369;49.862;9.908;2022-12-01T06:38:51;30.48;;;13.48;;
64875;SDS011;51369;49.862;9.908;2022-12-01T06:41:16;33.08;;;16.52;;
64875;SDS011;51369;49.862;9.908;2022-12-01T06:43:41;35.15;;;17.58;;
64875;SDS011;51369;49.862;9.908;2022-12-01T06:46:07;33.50;;;16.23;;
64875;SDS011;51369;49.862;9.908;2022-12-01T06:48:32;34.35;;;16.45;;
64875;SDS011;51369;49.862;9.908;2022-12-01T06:50:58;33.90;;;16.83;;
64875;SDS011;51369;49.862;9.908;2022-12-01T06:53:24;33.17;;;16.67;;
64875;SDS011;51369;49.862;9.908;2022-12-01T06:55:51;32.95;;;15.27;;
64875;SDS011;51369;49.862;9.908;2022-12-01T06:58:17;31.98;;;15.93;;
64875;SDS011;51369;49.862;9.908;2022-12-01T07:00:42;30.17;;;15.48;;
64875;SDS011;51369;49.862;9.908;2022-12-01T07:03:08;33.58;;;15.68;;
64875;SDS011;51369;49.862;9.908;2022-12-01T07:05:33;30.02;;;15.25;;
64875;SDS011;51369;49.862;9.908;2022-12-01T07:07:58;33.35;;;16.83;;
64875;SDS011;51369;49.862;9.908;2022-12-01T07:10:25;36.25;;;15.35;;
64875;SDS011;51369;49.862;9.908;2022-12-01T07:12:51;35.33;;;17.52;;
64875;SDS011;51369;49.862;9.908;2022-12-01T07:15:17;35.25;;;16.40;;
64875;SDS011;51369;49.862;9.908;2022-12-01T07:17:42;34.35;;;16.17;;
64875;SDS011;51369;49.862;9.908;2022-12-01T07:20:08;35.28;;;16.23;;
64875;SDS011;51369;49.862;9.908;2022-12-01T07:22:34;30.95;;;15.48;;
64875;SDS011;51369;49.862;9.908;2022-12-01T07:25:00;38.75;;;16.65;;
64875;SDS011;51369;49.862;9.908;2022-12-01T07:27:29;32.45;;;16.02;;
64875;SDS011;51369;49.862;9.908;2022-12-01T07:29:56;34.67;;;15.48;;
64875;SDS011;51369;49.862;9.908;2022-12-01T07:32:21;33.83;;;16.00;;
64875;SDS011;51369;49.862;9.908;2022-12-01T07:34:46;37.22;;;17.65;;
64875;SDS011;51369;49.862;9.908;2022-12-01T07:37:12;39.13;;;17.42;;
64875;SDS011;51369;49.862;9.908;2022-12-01T07:39:37;37.72;;;16.98;;
64875;SDS011;51369;49.862;9.908;2022-12-01T07:42:03;37.65;;;17.15;;
64875;SDS011;51369;49.862;9.908;2022-12-01T07:44:28;40.58;;;17.58;;
64875;SDS011;51369;49.862;9.908;2022-12-01T07:46:54;36.75;;;18.33;;
64875;SDS011;51369;49.862;9.908;2022-12-01T07:49:19;36.30;;;17.75;;
64875;SDS011;51369;49.862;9.908;2022-12-01T07:51:44;39.08;;;16.80;;
64875;SDS011;51369;49.862;9.908;2022-12-01T07:54:10;37.58;;;17.67;;
64875;SDS011;51369;49.862;9.908;2022-12-01T07:56:38;33.90;;;14.50;;
64875;SDS011;51369;49.862;9.908;2022-12-01T07:59:04;36.63;;;17.08;;
64875;SDS011;51369;49.862;9.908;2022-12-01T08:01:30;38.83;;;17.40;;
64875;SDS011;51369;49.862;9.908;2022-12-01T08:03:56;32.05;;;16.15;;
64875;SDS011;51369;49.862;9.908;2022-12-01T08:06:23;33.13;;;16.83;;
64875;SDS011;51369;49.862;9.908;2022-12-01T08:08:50;40.60;;;17.17;;
64875;SDS011;51369;49.862;9.908;2022-12-01T08:11:20;35.22;;;16.65;;
64875;SDS011;51369;49.862;9.908;2022-12-01T08:16:14;29.73;;;15.07;;
64875;SDS011;51369;49.862;9.908;2022-12-01T08:18:43;49.53;;;18.60;;
64875;SDS011;51369;49.862;9.908;2022-12-01T08:21:10;46.78;;;19.52;;
64875;SDS011;51369;49.862;9.908;2022-12-01T08:23:37;34.75;;;17.63;;
64875;SDS011;51369;49.862;9.908;2022-12-01T08:26:06;37.55;;;17.00;;
64875;SDS011;51369;49.862;9.908;2022-12-01T08:28:35;43.88;;;20.42;;
64875;SDS011;51369;49.862;9.908;2022-12-01T08:31:10;40.45;;;19.15;;
64875;SDS011;51369;49.862;9.908;2022-12-01T08:33:38;42.08;;;17.77;;
64875;SDS011;51369;49.862;9.908;2022-12-01T08:36:04;35.95;;;17.05;;
64875;SDS011;51369;49.862;9.908;2022-12-01T08:38:30;40.47;;;18.65;;
64875;SDS011;51369;49.862;9.908;2022-12-01T08:41:03;33.75;;;16.33;;
64875;SDS011;51369;49.862;9.908;2022-12-01T08:43:32;38.85;;;17.65;;
64875;SDS011;51369;49.862;9.908;2022-12-01T08:46:03;33.78;;;16.58;;
64875;SDS011;51369;49.862;9.908;2022-12-01T08:48:29;36.83;;;17.20;;
64875;SDS011;51369;49.862;9.908;2022-12-01T08:51:07;32.53;;;16.80;;
64875;SDS011;51369;49.862;9.908;2022-12-01T08:53:35;59.70;;;18.02;;
64875;SDS011;51369;49.862;9.908;2022-12-01T08:56:07;36.85;;;17.08;;
64875;SDS011;51369;49.862;9.908;2022-12-01T08:58:35;42.45;;;17.90;;
64875;SDS011;51369;49.862;9.908;2022-12-01T09:01:04;38.30;;;18.08;;
64875;SDS011;51369;49.862;9.908;2022-12-01T09:03:38;41.47;;;16.52;;
64875;SDS011;51369;49.862;9.908;2022-12-01T09:06:05;47.38;;;18.58;;
64875;SDS011;51369;49.862;9.908;2022-12-01T09:08:34;38.20;;;17.02;;
64875;SDS011;51369;49.862;9.908;2022-12-01T09:11:01;39.30;;;17.60;;
64875;SDS011;51369;49.862;9.908;2022-12-01T09:13:32;36.75;;;17.48;;
64875;SDS011;51369;49.862;9.908;2022-12-01T09:16:00;37.60;;;15.05;;
64875;SDS011;51369;49.862;9.908;2022-12-01T09:18:27;29.98;;;15.82;;
64875;SDS011;51369;49.862;9.908;2022-12-01T09:20:53;39.95;;;16.15;;
64875;SDS011;51369;49.862;9.908;2022-12-01T09:23:20;28.77;;;15.82;;
64875;SDS011;51369;49.862;9.908;2022-12-01T09:25:46;29.58;;;15.48;;
64875;SDS011;51369;49.862;9.908;2022-12-01T09:28:13;37.53;;;15.80;;
64875;SDS011;51369;49.862;9.908;2022-12-01T09:30:39;30.58;;;14.02;;
64875;SDS011;51369;49.862;9.908;2022-12-01T09:33:04;33.20;;;15.30;;
64875;SDS011;51369;49.862;9.908;2022-12-01T09:35:30;32.20;;;16.20;;
64875;SDS011;51369;49.862;9.908;2022-12-01T09:37:56;31.70;;;15.32;;
64875;SDS011;51369;49.862;9.908;2022-12-01T09:40:24;33.38;;;15.63;;
64875;SDS011;51369;49.862;9.908;2022-12-01T09:42:59;33.20;;;16.15;;
64875;SDS011;51369;49.862;9.908;2022-12-01T09:45:28;34.28;;;15.88;;
64875;SDS011;51369;49.862;9.908;2022-12-01T09:47:56;30.13;;;14.32;;
64875;SDS011;51369;49.862;9.908;2022-12-01T09:50:24;32.03;;;13.75;;
64875;SDS011;51369;49.862;9.908;2022-12-01T09:55:24;35.15;;;16.17;;
64875;SDS011;51369;49.862;9.908;2022-12-01T09:57:54;35.10;;;16.10;;
64875;SDS011;51369;49.862;9.908;2022-12-01T10:00:22;33.28;;;15.07;;
64875;SDS011;51369;49.862;9.908;2022-12-01T10:02:50;30.05;;;14.95;;
64875;SDS011;51369;49.862;9.908;2022-12-01T10:05:22;29.60;;;15.07;;
64875;SDS011;51369;49.862;9.908;2022-12-01T10:07:55;31.27;;;15.15;;
64875;SDS011;51369;49.862;9.908;2022-12-01T10:10:35;35.40;;;15.02;;
64875;SDS011;51369;49.862;9.908;2022-12-01T10:13:20;34.22;;;15.85;;
64875;SDS011;51369;49.862;9.908;2022-12-01T10:34:24;28.48;;;14.55;;
64875;SDS011;51369;49.862;9.908;2022-12-01T10:36:53;30.48;;;15.02;;
64875;SDS011;51369;49.862;9.908;2022-12-01T10:39:25;28.02;;;14.55;;
64875;SDS011;51369;49.862;9.908;2022-12-01T10:42:05;24.02;;;13.43;;
64875;SDS011;51369;49.862;9.908;2022-12-01T10:44:36;26.90;;;13.35;;
64875;SDS011;51369;49.862;9.908;2022-12-01T10:47:02;31.35;;;14.20;;
64875;SDS011;51369;49.862;9.908;2022-12-01T10:49:39;26.08;;;14.20;;
64875;SDS011;51369;49.862;9.908;2022-12-01T10:52:05;29.88;;;14.20;;
64875;SDS011;51369;49.862;9.908;2022-12-01T10:54:33;24.67;;;13.82;;
64875;SDS011;51369;49.862;9.908;2022-12-01T10:57:04;31.30;;;14.55;;
64875;SDS011;51369;49.862;9.908;2022-12-01T11:02:18;28.30;;;14.40;;
64875;SDS011;51369;49.862;9.908;2022-12-01T11:04:50;26.65;;;12.23;;
64875;SDS011;51369;49.862;9.908;2022-12-01T11:07:21;29.88;;;13.30;;
64875;SDS011;51369;49.862;9.908;2022-12-01T11:12:29;24.45;;;13.77;;
64875;SDS011;51369;49.862;9.908;2022-12-01T11:14:55;27.15;;;13.07;;
64875;SDS011;51369;49.862;9.908;2022-12-01T11:17:29;27.83;;;14.45;;
64875;SDS011;51369;49.862;9.908;2022-12-01T11:20:19;32.03;;;14.88;;
64875;SDS011;51369;49.862;9.908;2022-12-01T11:29:03;34.53;;;15.23;;
64875;SDS011;51369;49.862;9.908;2022-12-01T11:31:39;25.35;;;13.77;;
64875;SDS011;51369;49.862;9.908;2022-12-01T11:34:14;28.65;;;14.25;;
64875;SDS011;51369;49.862;9.908;2022-12-01T11:36:45;27.38;;;14.40;;
64875;SDS011;51369;49.862;9.908;2022-12-01T11:39:26;26.20;;;13.88;;
64875;SDS011;51369;49.862;9.908;2022-12-01T11:42:04;26.85;;;14.30;;
64875;SDS011;51369;49.862;9.908;2022-12-01T11:44:46;27.30;;;13.18;;
64875;SDS011;51369;49.862;9.908;2022-12-01T11:47:16;28.42;;;14.25;;
64875;SDS011;51369;49.862;9.908;2022-12-01T11:49:57;26.05;;;14.38;;
64875;SDS011;51369;49.862;9.908;2022-12-01T11:57:35;34.92;;;13.68;;
64875;SDS011;51369;49.862;9.908;2022-12-01T12:00:16;27.20;;;13.40;;
64875;SDS011;51369;49.862;9.908;2022-12-01T12:11:20;29.20;;;14.90;;
64875;SDS011;51369;49.862;9.908;2022-12-01T12:16:43;28.85;;;14.40;;
64875;SDS011;51369;49.862;9.908;2022-12-01T12:25:04;24.65;;;12.38;;
64875;SDS011;51369;49.862;9.908;2022-12-01T12:30:58;29.27;;;16.02;;
64875;SDS011;51369;49.862;9.908;2022-12-01T12:36:27;25.45;;;13.70;;
64875;SDS011;51369;49.862;9.908;2022-12-01T12:39:46;29.08;;;14.65;;
64875;SDS011;51369;49.862;9.908;2022-12-01T12:42:32;31.60;;;15.60;;
64875;SDS011;51369;49.862;9.908;2022-12-01T12:45:09;30.63;;;15.48;;
64875;SDS011;51369;49.862;9.908;2022-12-01T12:47:58;31.30;;;15.80;;
64875;SDS011;51369;49.862;9.908;2022-12-01T12:50:48;33.38;;;16.33;;
64875;SDS011;51369;49.862;9.908;2022-12-01T12:53:35;96.75;;;18.60;;
64875;SDS011;51369;49.862;9.908;2022-12-01T12:56:09;31.77;;;14.57;;
64875;SDS011;51369;49.862;9.908;2022-12-01T12:58:40;29.10;;;16.02;;
64875;SDS011;51369;49.862;9.908;2022-12-01T13:01:18;28.23;;;14.90;;
64875;SDS011;51369;49.862;9.908;2022-12-01T13:04:03;25.67;;;15.05;;
64875;SDS011;51369;49.862;9.908;2022-12-01T13:06:38;27.15;;;13.70;;
64875;SDS011;51369;49.862;9.908;2022-12-01T13:09:14;34.33;;;14.98;;
64875;SDS011;51369;49.862;9.908;2022-12-01T13:11:54;36.55;;;15.15;;
64875;SDS011;51369;49.862;9.908;2022-12-01T13:14:28;28.93;;;15.27;;
64875;SDS011;51369;49.862;9.908;2022-12-01T13:17:03;34.67;;;16.10;;
64875;SDS011;51369;49.862;9.908;2022-12-01T13:19:36;36.53;;;14.90;;
64875;SDS011;51369;49.862;9.908;2022-12-01T13:22:05;34.65;;;16.10;;
64875;SDS011;51369;49.862;9.908;2022-12-01T13:24:32;39.78;;;15.90;;
64875;SDS011;51369;49.862;9.908;2022-12-01T13:29:31;35.08;;;15.57;;
64875;SDS011;51369;49.862;9.908;2022-12-01T13:31:59;30.67;;;16.10;;
64875;SDS011;51369;49.862;9.908;2022-12-01T13:37:07;33.50;;;14.52;;
64875;SDS011;51369;49.862;9.908;2022-12-01T13:39:38;26.05;;;14.52;;
64875;SDS011;51369;49.862;9.908;2022-12-01T13:42:18;31.98;;;15.60;;
64875;SDS011;51369;49.862;9.908;2022-12-01T13:44:54;30.35;;;15.25;;
64875;SDS011;51369;49.862;9.908;2022-12-01T13:55:51;41.33;;;16.52;;
64875;SDS011;51369;49.862;9.908;2022-12-01T13:58:23;31.63;;;15.18;;
64875;SDS011;51369;49.862;9.908;2022-12-01T14:00:52;26.88;;;14.73;;
64875;SDS011;51369;49.862;9.908;2022-12-01T14:08:27;29.77;;;15.95;;
64875;SDS011;51369;49.862;9.908;2022-12-01T14:10:58;29.88;;;16.20;;
64875;SDS011;51369;49.862;9.908;2022-12-01T14:13:28;50.15;;;21.02;;
64875;SDS011;51369;49.862;9.908;2022-12-01T14:15:58;41.47;;;19.25;;
64875;SDS011;51369;49.862;9.908;2022-12-01T14:18:28;29.92;;;16.05;;
64875;SDS011;51369;49.862;9.908;2022-12-01T14:20:57;30.55;;;16.35;;
64875;SDS011;51369;49.862;9.908;2022-12-01T14:23:28;30.50;;;15.63;;
64875;SDS011;51369;49.862;9.908;2022-12-01T14:26:14;36.50;;;16.15;;
64875;SDS011;51369;49.862;9.908;2022-12-01T14:34:03;35.08;;;17.35;;
64875;SDS011;51369;49.862;9.908;2022-12-01T14:36:35;29.67;;;16.00;;
64875;SDS011;51369;49.862;9.908;2022-12-01T14:39:08;34.75;;;18.25;;
64875;SDS011;51369;49.862;9.908;2022-12-01T14:47:07;35.63;;;17.35;;
64875;SDS011;51369;49.862;9.908;2022-12-01T14:54:51;35.13;;;18.17;;
64875;SDS011;51369;49.862;9.908;2022-12-01T14:57:19;30.17;;;17.73;;
64875;SDS011;51369;49.862;9.908;2022-12-01T15:00:05;31.92;;;17.17;;
64875;SDS011;51369;49.862;9.908;2022-12-01T15:06:26;27.02;;;15.88;;
64875;SDS011;51369;49.862;9.908;2022-12-01T15:09:04;34.22;;;15.48;;
64875;SDS011;51369;49.862;9.908;2022-12-01T15:14:47;32.20;;;16.52;;
64875;SDS011;51369;49.862;9.908;2022-12-01T15:17:46;39.20;;;19.05;;
64875;SDS011;51369;49.862;9.908;2022-12-01T15:20:23;39.97;;;17.70;;
64875;SDS011;51369;49.862;9.908;2022-12-01T15:22:51;31.67;;;16.33;;
64875;SDS011;51369;49.862;9.908;2022-12-01T15:25:17;34.55;;;18.33;;
64875;SDS011;51369;49.862;9.908;2022-12-01T15:27:42;37.70;;;18.00;;
64875;SDS011;51369;49.862;9.908;2022-12-01T15:30:11;35.60;;;17.88;;
64875;SDS011;51369;49.862;9.908;2022-12-01T15:32:38;33.80;;;17.83;;
64875;SDS011;51369;49.862;9.908;2022-12-01T15:35:09;41.45;;;22.15;;
64875;SDS011;51369;49.862;9.908;2022-12-01T15:37:43;43.58;;;24.08;;
64875;SDS011;51369;49.862;9.908;2022-12-01T15:40:11;42.33;;;22.42;;
64875;SDS011;51369;49.862;9.908;2022-12-01T15:42:41;38.92;;;21.73;;
64875;SDS011;51369;49.862;9.908;2022-12-01T15:47:44;35.83;;;18.75;;
64875;SDS011;51369;49.862;9.908;2022-12-01T15:50:30;39.10;;;18.13;;
64875;SDS011;51369;49.862;9.908;2022-12-01T15:53:04;28.42;;;16.67;;
64875;SDS011;51369;49.862;9.908;2022-12-01T15:55:40;30.85;;;16.95;;
64875;SDS011;51369;49.862;9.908;2022-12-01T15:58:06;39.67;;;18.25;;
64875;SDS011;51369;49.862;9.908;2022-12-01T16:00:33;30.95;;;16.85;;
64875;SDS011;51369;49.862;9.908;2022-12-01T16:02:59;43.20;;;19.05;;
64875;SDS011;51369;49.862;9.908;2022-12-01T16:05:30;34.50;;;19.33;;
64875;SDS011;51369;49.862;9.908;2022-12-01T16:07:59;47.40;;;21.50;;
64875;SDS011;51369;49.862;9.908;2022-12-01T16:10:40;40.55;;;20.65;;
64875;SDS011;51369;49.862;9.908;2022-12-01T16:19:01;39.40;;;20.35;;
64875;SDS011;51369;49.862;9.908;2022-12-01T16:21:30;36.80;;;19.95;;
64875;SDS011;51369;49.862;9.908;2022-12-01T16:24:05;33.50;;;18.77;;
64875;SDS011;51369;49.862;9.908;2022-12-01T16:26:31;36.42;;;20.92;;
64875;SDS011;51369;49.862;9.908;2022-12-01T16:28:57;39.10;;;19.13;;
64875;SDS011;51369;49.862;9.908;2022-12-01T16:31:24;39.63;;;19.08;;
64875;SDS011;51369;49.862;9.908;2022-12-01T16:34:00;30.50;;;18.80;;
64875;SDS011;51369;49.862;9.908;2022-12-01T16:36:27;34.20;;;18.25;;
64875;SDS011;51369;49.862;9.908;2022-12-01T16:38:53;35.92;;;19.73;;
64875;SDS011;51369;49.862;9.908;2022-12-01T16:41:25;35.58;;;19.38;;
64875;SDS011;51369;49.862;9.908;2022-12-01T16:43:54;31.65;;;17.92;;
64875;SDS011;51369;49.862;9.908;2022-12-01T16:46:20;30.15;;;16.63;;
64875;SDS011;51369;49.862;9.908;2022-12-01T16:48:45;33.42;;;17.42;;
64875;SDS011;51369;49.862;9.908;2022-12-01T16:51:12;38.83;;;20.88;;
64875;SDS011;51369;49.862;9.908;2022-12-01T16:53:38;30.70;;;16.98;;
64875;SDS011;51369;49.862;9.908;2022-12-01T16:56:03;37.35;;;17.58;;
64875;SDS011;51369;49.862;9.908;2022-12-01T16:58:29;32.63;;;16.92;;
64875;SDS011;51369;49.862;9.908;2022-12-01T17:00:55;32.90;;;17.52;;
64875;SDS011;51369;49.862;9.908;2022-12-01T17:03:21;47.95;;;18.35;;
64875;SDS011;51369;49.862;9.908;2022-12-01T17:05:48;32.40;;;17.88;;
64875;SDS011;51369;49.862;9.908;2022-12-01T17:08:14;41.67;;;20.98;;
64875;SDS011;51369;49.862;9.908;2022-12-01T17:10:42;43.80;;;21.65;;
64875;SDS011;51369;49.862;9.908;2022-12-01T17:13:08;41.78;;;21.55;;
64875;SDS011;51369;49.862;9.908;2022-12-01T17:15:38;48.00;;;23.70;;
64875;SDS011;51369;49.862;9.908;2022-12-01T17:18:05;50.28;;;24.38;;